Time;durP1;ratioP1;P1;durP2;ratioP2;P2;SDS_P1;SDS_P2;PMS_P1;PMS_P2;Temp;Humidity;BMP_temperature;BMP_pressure;BME280_temperature;BME280_humidity;BME280_pressure;Samples;Min_cycle;Max_cycle;Signal;HPM_P1;HPM_P2
2023/10/15 00:01:57;;;;;;;4.13;1.83;;;;;;;7.75;82.19;101714.56;5051590;28;20029;-80
2023/10/15 00:04:22;;;;;;;4.18;1.90;;;;;;;7.78;82.40;101711.97;5049296;28;20025;-80
2023/10/15 00:06:48;;;;;;;4.28;1.80;;;;;;;7.80;82.37;101712.81;5050293;28;20475;-80
2023/10/15 00:09:13;;;;;;;5.07;1.80;;;;;;;7.84;82.45;101713.72;5047388;28;20021;-80
2023/10/15 00:11:39;;;;;;;5.35;1.70;;;;;;;7.86;82.06;101723.19;5043576;28;20033;-80
2023/10/15 00:14:04;;;;;;;4.65;1.67;;;;;;;7.90;82.20;101743.06;5049206;28;20029;-80
2023/10/15 00:16:31;;;;;;;3.92;1.67;;;;;;;7.94;81.96;101745.66;5059630;28;20021;-80
2023/10/15 00:18:56;;;;;;;4.68;1.92;;;;;;;7.92;82.22;101742.22;5047393;28;20033;-80
2023/10/15 00:21:22;;;;;;;2.90;1.50;;;;;;;7.94;82.43;101746.50;5049506;28;20046;-80
2023/10/15 00:23:47;;;;;;;3.92;1.55;;;;;;;7.98;82.49;101752.56;5048962;28;20391;-80
2023/10/15 00:26:14;;;;;;;4.47;1.70;;;;;;;8.00;82.05;101756.00;5049439;28;20020;-80
2023/10/15 00:28:39;;;;;;;7.45;1.75;;;;;;;8.01;82.27;101749.97;5059074;28;20067;-80
2023/10/15 00:31:09;;;;;;;6.68;1.90;;;;;;;8.05;82.33;101760.31;5047503;28;20029;-80
2023/10/15 00:33:35;;;;;;;3.72;1.52;;;;;;;8.08;82.67;101750.81;5047224;28;20013;-80
2023/10/15 00:36:00;;;;;;;4.15;1.70;;;;;;;8.11;81.58;101753.41;5046088;28;20029;-80
2023/10/15 00:38:26;;;;;;;5.07;1.90;;;;;;;8.12;82.13;101753.41;5048550;28;20483;-80
2023/10/15 00:41:00;;;;;;;4.63;1.75;;;;;;;8.15;81.25;101752.56;5048211;28;20040;-80
2023/10/15 00:43:26;;;;;;;3.20;1.80;;;;;;;8.13;81.58;101754.28;5047679;28;20104;-80
2023/10/15 00:45:52;;;;;;;4.95;1.60;;;;;;;8.14;82.10;101748.22;5048232;28;20027;-80
2023/10/15 00:48:24;;;;;;;5.50;1.73;;;;;;;8.15;82.47;101749.97;5048218;28;20451;-80
2023/10/15 00:50:51;;;;;;;4.65;1.80;;;;;;;8.17;82.57;101745.66;5052211;28;20020;-80
2023/10/15 00:53:23;;;;;;;8.43;2.10;;;;;;;8.19;82.94;101739.59;5051054;28;20021;-80
2023/10/15 00:56:04;;;;;;;;;;;;;;;8.27;81.00;101733.53;5049212;28;20353;-80
2023/10/15 00:59:07;;;;;;;4.32;1.60;;;;;;;8.25;82.59;101735.25;5049337;28;19912;-80
2023/10/15 01:01:33;;;;;;;7.88;1.70;;;;;;;8.27;82.16;101723.16;5050414;28;20040;-80
2023/10/15 01:03:59;;;;;;;2.05;1.40;;;;;;;8.27;82.69;101729.19;5056473;28;20488;-80
2023/10/15 01:09:09;;;;;;;5.28;1.52;;;;;;;8.28;82.55;101717.97;5052726;28;20107;-80
2023/10/15 01:11:51;;;;;;;6.30;1.70;;;;;;;8.29;82.63;101714.50;5050383;28;20083;-80
2023/10/15 01:14:25;;;;;;;5.85;1.70;;;;;;;8.31;83.05;101717.97;5046649;28;20017;-80
2023/10/15 01:16:51;;;;;;;4.22;1.63;;;;;;;8.30;82.99;101724.00;5042558;28;20032;-80
2023/10/15 01:19:20;;;;;;;3.72;1.52;;;;;;;8.32;82.58;101731.78;5050620;28;20027;-80
2023/10/15 01:21:57;;;;;;;4.32;1.70;;;;;;;8.31;82.78;101733.53;5050861;28;20025;-80
2023/10/15 01:24:25;;;;;;;2.58;1.35;;;;;;;8.33;83.52;101717.94;5048923;28;20028;-80
2023/10/15 01:27:09;;;;;;;4.57;1.80;;;;;;;8.32;84.33;101717.09;5048797;28;20403;-80
2023/10/15 01:29:35;;;;;;;5.05;2.15;;;;;;;8.31;84.45;101733.53;5049359;28;20098;-80
2023/10/15 01:32:03;;;;;;;3.47;1.60;;;;;;;8.30;85.12;101743.88;5047095;28;20021;-80
2023/10/15 01:34:40;;;;;;;5.82;1.85;;;;;;;8.30;85.42;101736.97;5041595;28;20037;-80
2023/10/15 01:39:53;;;;;;;5.55;1.70;;;;;;;8.30;85.25;101703.28;5043628;28;20427;-80
2023/10/15 01:45:07;;;;;;;4.82;1.70;;;;;;;8.28;85.69;101715.38;5047125;28;20043;-80
2023/10/15 01:47:35;;;;;;;4.25;1.48;;;;;;;8.25;85.54;101746.47;5044307;28;20487;-80
2023/10/15 01:50:03;;;;;;;3.63;1.55;;;;;;;8.20;84.46;101753.41;5038136;28;20192;-80
2023/10/15 01:52:34;;;;;;;6.68;1.60;;;;;;;8.18;86.15;101742.19;5042394;28;20039;-80
2023/10/15 01:55:04;;;;;;;3.17;1.67;;;;;;;8.22;86.55;101725.75;5041008;28;20041;-80
2023/10/15 01:57:29;;;;;;;3.30;1.58;;;;;;;8.18;86.07;101755.16;5040026;28;20352;-80
2023/10/15 02:00:05;;;;;;;4.75;1.80;;;;;;;8.14;87.39;101758.59;5043937;28;20480;-80
2023/10/15 02:02:30;;;;;;;6.50;1.90;;;;;;;8.14;88.31;101732.69;5042750;28;20158;-80
2023/10/15 02:04:57;;;;;;;4.70;1.50;;;;;;;8.12;88.82;101718.84;5046249;28;20096;-80
2023/10/15 02:07:22;;;;;;;3.42;1.45;;;;;;;8.10;88.74;101718.88;5049270;28;20037;-80
2023/10/15 02:09:48;;;;;;;4.88;1.60;;;;;;;8.08;89.44;101717.13;5050448;28;20036;-80
2023/10/15 02:12:14;;;;;;;4.95;1.65;;;;;;;8.07;89.34;101715.41;5048084;28;20025;-80
2023/10/15 02:14:44;;;;;;;3.90;1.50;;;;;;;8.04;89.21;101711.94;5049566;28;20586;-80
2023/10/15 02:17:13;;;;;;;3.88;1.52;;;;;;;8.02;89.04;101712.81;5048748;28;20033;-80
2023/10/15 02:19:42;;;;;;;5.07;1.60;;;;;;;7.96;89.73;101708.50;5047691;28;20040;-80
2023/10/15 02:22:15;;;;;;;3.70;1.60;;;;;;;7.94;89.55;101699.03;5048325;28;20043;-80
2023/10/15 02:24:46;;;;;;;2.90;1.27;;;;;;;7.89;89.69;101697.28;5049499;28;20032;-80
2023/10/15 02:27:23;;;;;;;3.60;1.30;;;;;;;7.87;90.22;101695.56;5048289;28;20031;-80
2023/10/15 02:29:51;;;;;;;3.33;1.10;;;;;;;7.84;90.43;101703.34;5045811;28;20035;-80
2023/10/15 02:34:45;;;;;;;4.18;1.23;;;;;;;7.79;89.62;101715.44;5046676;28;20476;-80
2023/10/15 02:37:11;;;;;;;2.85;1.30;;;;;;;7.73;89.54;101716.28;5043229;28;20037;-80
2023/10/15 02:39:44;;;;;;;2.80;1.20;;;;;;;7.70;89.36;101716.28;5045772;28;20383;-80
2023/10/15 02:42:10;;;;;;;2.53;1.10;;;;;;;7.67;89.46;101706.81;5044894;28;20031;-80
2023/10/15 02:44:38;;;;;;;2.60;1.30;;;;;;;7.64;89.71;101716.28;5045264;28;20510;-80
2023/10/15 02:47:07;;;;;;;5.70;1.33;;;;;;;7.64;89.86;101729.22;5042779;28;20021;-80
2023/10/15 02:49:53;;;;;;;2.75;1.10;;;;;;;7.59;90.37;101758.59;5041400;28;20025;-80
2023/10/15 02:52:20;;;;;;;5.32;1.65;;;;;;;7.52;90.25;101787.91;5048399;28;20387;-80
2023/10/15 02:54:46;;;;;;;4.78;1.73;;;;;;;7.42;90.96;101779.25;5044322;28;20083;-80
2023/10/15 02:57:15;;;;;;;3.85;1.45;;;;;;;7.34;90.54;101773.22;5042841;28;20051;-80
2023/10/15 02:59:51;;;;;;;3.15;1.50;;;;;;;7.26;89.78;101798.19;5039165;28;20495;-81
2023/10/15 03:02:20;;;;;;;5.93;1.33;;;;;;;7.09;89.75;101791.22;5045076;28;20094;-79
2023/10/15 03:04:51;;;;;;;3.70;0.93;;;;;;;7.07;90.68;101777.41;5044230;28;20040;-79
2023/10/15 03:07:19;;;;;;;3.75;1.08;;;;;;;7.03;90.64;101770.50;5037257;28;20068;-80
2023/10/15 03:09:56;;;;;;;3.15;1.00;;;;;;;7.04;91.19;101759.28;5039988;28;20018;-80
2023/10/15 03:12:23;;;;;;;2.92;1.20;;;;;;;7.07;90.74;101756.72;5044242;28;20472;-79
2023/10/15 03:14:48;;;;;;;1.85;0.90;;;;;;;7.08;90.52;101752.44;5036814;28;20021;-79
2023/10/15 03:17:24;;;;;;;2.28;0.70;;;;;;;7.11;91.40;101749.81;5039497;28;20041;-80
2023/10/15 03:19:52;;;;;;;1.67;0.80;;;;;;;7.11;90.84;101748.13;5042696;28;20021;-79
2023/10/15 03:22:17;;;;;;;1.23;0.60;;;;;;;7.12;90.74;101743.78;5039661;28;20034;-80
2023/10/15 03:24:44;;;;;;;2.50;0.60;;;;;;;7.15;91.29;101743.81;5043596;28;20079;-79
2023/10/15 03:27:09;;;;;;;1.30;0.60;;;;;;;7.18;90.82;101748.13;5038951;28;20039;-80
2023/10/15 03:29:35;;;;;;;1.90;0.68;;;;;;;7.18;91.17;101766.22;5043117;28;20032;-80
2023/10/15 03:32:09;;;;;;;0.85;0.52;;;;;;;7.21;91.28;101774.00;5044324;28;20025;-80
2023/10/15 03:34:35;;;;;;;1.02;0.60;;;;;;;7.22;91.43;101762.81;5046152;28;20464;-80
2023/10/15 03:37:01;;;;;;;1.38;0.57;;;;;;;7.22;91.08;101760.22;5041275;28;20104;-80
2023/10/15 03:42:17;;;;;;;2.33;0.60;;;;;;;7.16;90.83;101755.88;5043322;28;20036;-80
2023/10/15 03:44:44;;;;;;;1.05;0.60;;;;;;;7.13;91.83;101756.75;5045171;28;20056;-80
2023/10/15 03:47:15;;;;;;;2.50;0.70;;;;;;;7.14;91.71;101761.06;5040748;28;20031;-80
2023/10/15 03:49:40;;;;;;;1.38;0.50;;;;;;;7.16;91.18;101767.97;5043993;28;20033;-80
2023/10/15 03:52:14;;;;;;;1.40;0.60;;;;;;;7.17;91.23;101761.94;5042552;28;20161;-80
2023/10/15 03:54:39;;;;;;;2.80;0.55;;;;;;;7.19;91.53;101770.53;5043332;28;20032;-80
2023/10/15 03:57:08;;;;;;;1.10;0.52;;;;;;;7.21;91.09;101774.00;5041260;28;20096;-80
2023/10/15 03:59:44;;;;;;;1.48;0.38;;;;;;;7.22;89.70;101780.91;5041112;28;20082;-80
2023/10/15 04:02:14;;;;;;;1.60;0.40;;;;;;;7.18;90.15;101774.00;5045162;28;20025;-80
2023/10/15 04:04:39;;;;;;;0.75;0.30;;;;;;;7.18;89.79;101785.22;5045442;28;20029;-80
2023/10/15 04:07:19;;;;;;;1.20;0.40;;;;;;;7.23;90.17;101780.06;5047045;28;20032;-80
2023/10/15 04:09:44;;;;;;;1.70;0.47;;;;;;;7.28;90.50;101780.94;5046892;28;20024;-80
2023/10/15 04:12:09;;;;;;;2.28;0.57;;;;;;;7.28;90.53;101768.00;5042543;28;20895;-80
2023/10/15 04:14:34;;;;;;;2.05;0.60;;;;;;;7.29;90.57;101754.22;5050558;28;20032;-80
2023/10/15 04:17:00;;;;;;;1.55;0.40;;;;;;;7.29;90.80;101751.63;5050569;28;20031;-80
2023/10/15 04:19:26;;;;;;;1.23;0.40;;;;;;;7.26;90.42;101746.44;5052986;28;20032;-80
2023/10/15 04:21:53;;;;;;;0.95;0.40;;;;;;;7.23;90.69;101752.47;5046382;28;20033;-80
2023/10/15 04:24:28;;;;;;;1.25;0.50;;;;;;;7.25;90.04;101760.22;5052643;28;20104;-80
2023/10/15 04:26:53;;;;;;;0.90;0.40;;;;;;;7.25;90.61;101770.59;5046097;28;20437;-80
2023/10/15 04:29:21;;;;;;;2.08;0.57;;;;;;;7.25;90.29;101763.69;5049817;28;20112;-81
2023/10/15 04:31:51;;;;;;;1.30;0.50;;;;;;;7.26;90.75;101769.72;5050628;28;20031;-80
2023/10/15 04:34:18;;;;;;;2.15;0.50;;;;;;;7.27;90.85;101771.47;5054654;28;20044;-80
2023/10/15 04:36:45;;;;;;;1.67;0.65;;;;;;;7.28;91.10;101763.69;5046114;28;20039;-80
2023/10/15 04:39:12;;;;;;;2.55;0.68;;;;;;;7.29;90.60;101767.16;5045927;28;20111;-80
2023/10/15 04:41:38;;;;;;;1.77;0.52;;;;;;;7.30;91.19;101766.28;5043099;28;20016;-80
2023/10/15 04:44:04;;;;;;;1.05;0.45;;;;;;;7.31;90.72;101773.19;5046035;28;20032;-80
2023/10/15 04:46:30;;;;;;;1.25;0.60;;;;;;;7.32;90.85;101774.94;5044343;28;20107;-80
2023/10/15 04:48:56;;;;;;;1.92;0.95;;;;;;;7.34;91.19;101780.09;5044818;28;20472;-80
2023/10/15 04:51:29;;;;;;;1.58;0.50;;;;;;;7.35;90.94;101782.69;5046647;28;20107;-80
2023/10/15 04:53:55;;;;;;;2.67;0.60;;;;;;;7.35;90.70;101782.69;5046757;28;20018;-80
2023/10/15 04:56:21;;;;;;;3.50;0.50;;;;;;;7.37;91.28;101780.13;5049021;28;20498;-79
2023/10/15 04:58:48;;;;;;;1.33;0.50;;;;;;;7.36;91.17;101779.22;5047713;28;20533;-80
2023/10/15 05:01:14;;;;;;;2.30;0.60;;;;;;;7.34;91.30;101770.63;5036231;28;20120;-80
2023/10/15 05:03:40;;;;;;;1.80;0.50;;;;;;;7.33;91.26;101781.84;5041940;28;20516;-80
2023/10/15 05:06:10;;;;;;;1.38;0.63;;;;;;;7.31;91.13;101768.03;5046659;28;20033;-80
2023/10/15 05:08:36;;;;;;;0.57;0.50;;;;;;;7.28;91.84;101765.41;5047355;28;20454;-80
2023/10/15 05:11:03;;;;;;;1.15;0.60;;;;;;;7.27;91.65;101753.34;5051146;28;20021;-80
2023/10/15 05:13:31;;;;;;;0.50;0.50;;;;;;;7.24;91.64;101755.91;5045192;28;20188;-80
2023/10/15 05:15:56;;;;;;;0.63;0.55;;;;;;;7.19;91.83;101750.72;5049798;28;20107;-80
2023/10/15 05:18:22;;;;;;;1.00;0.60;;;;;;;7.18;91.78;101758.47;5044201;28;20108;-80
2023/10/15 05:20:50;;;;;;;2.20;0.60;;;;;;;7.17;91.73;101767.97;5039847;28;20021;-80
2023/10/15 05:23:19;;;;;;;1.02;0.50;;;;;;;7.14;91.72;101758.47;5041838;28;20072;-80
2023/10/15 05:25:44;;;;;;;3.33;0.60;;;;;;;7.12;91.93;101757.63;5038774;28;20026;-80
2023/10/15 05:28:14;;;;;;;2.30;0.63;;;;;;;7.13;92.27;101761.03;5044352;28;20029;-80
2023/10/15 05:30:40;;;;;;;1.88;0.70;;;;;;;7.13;92.48;101759.34;5043993;28;20075;-80
2023/10/15 05:33:07;;;;;;;0.80;0.60;;;;;;;7.12;92.82;101756.72;5045983;28;20484;-80
2023/10/15 05:35:34;;;;;;;1.50;0.50;;;;;;;7.12;92.74;101748.97;5049939;28;20375;-80
2023/10/15 05:38:00;;;;;;;0.98;0.50;;;;;;;7.11;92.86;101752.41;5041027;28;20021;-79
2023/10/15 05:40:26;;;;;;;1.00;0.63;;;;;;;7.11;92.99;101761.06;5043405;28;20391;-80
2023/10/15 05:42:51;;;;;;;1.35;0.60;;;;;;;7.11;92.59;101774.00;5036761;28;20476;-79
2023/10/15 05:45:18;;;;;;;2.20;0.60;;;;;;;7.10;91.61;101784.31;5038196;28;20022;-79
2023/10/15 05:47:44;;;;;;;4.00;0.77;;;;;;;7.10;91.70;101787.78;5039241;28;20033;-80
2023/10/15 05:50:10;;;;;;;3.55;0.80;;;;;;;7.10;91.68;101787.78;5044346;28;20017;-80
2023/10/15 05:52:37;;;;;;;5.53;0.93;;;;;;;7.09;91.81;101786.06;5041033;28;20104;-79
2023/10/15 05:55:05;;;;;;;2.65;0.80;;;;;;;7.11;91.92;101784.34;5043930;28;20116;-80
2023/10/15 05:57:30;;;;;;;1.58;0.70;;;;;;;7.12;91.85;101780.91;5042077;28;20037;-80
2023/10/15 05:59:56;;;;;;;3.28;0.80;;;;;;;7.11;92.14;101792.09;5047405;28;20037;-80
2023/10/15 06:02:21;;;;;;;1.88;0.70;;;;;;;7.13;92.03;101798.16;5040154;28;20378;-79
2023/10/15 06:04:47;;;;;;;2.35;0.75;;;;;;;7.16;91.81;101804.22;5046190;28;20020;-84
2023/10/15 06:07:13;;;;;;;2.85;1.10;;;;;;;7.19;91.80;101806.78;5046745;28;20021;-80
2023/10/15 06:09:38;;;;;;;3.53;1.00;;;;;;;7.18;91.75;101808.53;5050063;28;20017;-79
2023/10/15 06:12:05;;;;;;;1.98;0.80;;;;;;;7.18;91.85;101805.94;5045144;28;20495;-80
2023/10/15 06:14:31;;;;;;;1.58;1.00;;;;;;;7.20;92.07;101816.28;5046980;28;20020;-80
2023/10/15 06:16:57;;;;;;;2.35;0.90;;;;;;;7.18;92.06;101810.22;5045150;28;20059;-80
2023/10/15 06:19:22;;;;;;;1.90;0.70;;;;;;;7.17;91.07;101811.97;5046701;28;20102;-80
2023/10/15 06:21:47;;;;;;;1.90;0.70;;;;;;;7.16;90.67;101814.56;5049165;28;20025;-80
2023/10/15 06:24:14;;;;;;;3.00;0.60;;;;;;;7.14;91.22;101820.59;5049545;28;20463;-80
2023/10/15 06:26:39;;;;;;;1.58;0.60;;;;;;;7.17;90.41;101829.22;5047130;28;20083;-79
2023/10/15 06:29:06;;;;;;;1.45;0.50;;;;;;;7.15;90.03;101844.72;5044632;28;20028;-79
2023/10/15 06:31:32;;;;;;;1.25;0.52;;;;;;;7.10;90.14;101839.53;5051691;28;20055;-79
2023/10/15 06:33:57;;;;;;;1.15;0.50;;;;;;;7.09;90.90;101847.28;5046845;28;20048;-79
2023/10/15 06:36:22;;;;;;;1.98;0.50;;;;;;;7.08;90.36;101841.25;5048083;28;20029;-80
2023/10/15 06:38:50;;;;;;;1.80;0.45;;;;;;;7.03;90.20;101832.59;5045491;28;20476;-80
2023/10/15 06:41:15;;;;;;;1.85;0.50;;;;;;;6.98;90.34;101813.63;5047434;28;20029;-80
2023/10/15 06:43:41;;;;;;;1.05;0.40;;;;;;;7.00;91.03;101806.72;5047531;28;20070;-80
2023/10/15 06:46:07;;;;;;;0.70;0.40;;;;;;;7.05;92.00;101799.84;5049797;28;20500;-79
2023/10/15 06:48:34;;;;;;;0.90;0.40;;;;;;;7.07;92.66;101810.22;5048817;28;20021;-80
2023/10/15 06:51:04;;;;;;;1.27;0.40;;;;;;;7.08;91.54;101814.53;5053981;28;20117;-80
2023/10/15 06:53:30;;;;;;;1.20;0.40;;;;;;;7.09;91.66;101832.63;5048017;28;20046;-80
2023/10/15 06:55:56;;;;;;;2.08;0.45;;;;;;;7.10;92.06;101851.59;5041345;28;20127;-80
2023/10/15 06:58:21;;;;;;;1.58;0.50;;;;;;;7.12;91.91;101868.88;5048277;28;20476;-80
2023/10/15 07:00:46;;;;;;;1.98;0.50;;;;;;;7.14;91.63;101872.34;5044751;28;20053;-81
2023/10/15 07:03:15;;;;;;;2.53;0.38;;;;;;;7.14;91.27;101868.88;5042126;28;20040;-80
2023/10/15 07:05:41;;;;;;;1.33;0.50;;;;;;;7.12;91.51;101871.47;5041348;28;20032;-80
2023/10/15 07:08:06;;;;;;;1.33;0.40;;;;;;;7.12;91.18;101868.88;5046471;28;20029;-80
2023/10/15 07:10:33;;;;;;;1.42;0.40;;;;;;;7.14;91.43;101871.47;5052095;28;20028;-82
2023/10/15 07:13:01;;;;;;;1.80;0.35;;;;;;;7.16;90.58;101876.66;5038590;28;20022;-80
2023/10/15 07:15:26;;;;;;;0.30;0.30;;;;;;;7.13;90.81;101875.78;5039024;28;20097;-80
2023/10/15 07:17:52;;;;;;;1.80;0.60;;;;;;;7.16;90.41;101879.25;5041612;28;20104;-80
2023/10/15 07:20:27;;;;;;;0.80;0.40;;;;;;;7.16;91.38;101874.09;5044010;28;20429;-80
2023/10/15 07:22:53;;;;;;;1.92;0.40;;;;;;;7.23;90.81;101896.53;5048648;28;20103;-80
2023/10/15 07:25:20;;;;;;;2.13;0.40;;;;;;;7.24;91.08;101890.50;5039105;28;20113;-80
2023/10/15 07:27:48;;;;;;;2.33;0.50;;;;;;;7.28;91.18;101900.00;5039117;28;20029;-80
2023/10/15 07:30:15;;;;;;;0.82;0.43;;;;;;;7.30;91.62;101895.72;5044464;28;20180;-80
2023/10/15 07:32:42;;;;;;;3.28;1.00;;;;;;;7.37;92.40;101902.63;5038884;28;20029;-81
2023/10/15 07:35:12;;;;;;;1.10;0.60;;;;;;;7.42;92.06;101900.94;5039510;28;20021;-80
2023/10/15 07:37:41;;;;;;;1.33;0.40;;;;;;;7.44;90.84;101911.28;5047106;28;20040;-80
2023/10/15 07:40:16;;;;;;;2.70;0.73;;;;;;;7.41;90.74;101912.16;5044722;28;20025;-80
2023/10/15 07:42:45;;;;;;;2.15;0.63;;;;;;;7.36;91.07;101913.84;5047586;28;20025;-80
2023/10/15 07:45:11;;;;;;;0.90;0.50;;;;;;;7.35;90.67;101926.78;5047762;28;20082;-80
2023/10/15 07:47:39;;;;;;;1.92;0.70;;;;;;;7.34;91.06;101920.78;5045595;28;20037;-80
2023/10/15 07:50:09;;;;;;;1.05;0.65;;;;;;;7.38;92.21;101922.50;5043686;28;20029;-80
2023/10/15 07:52:35;;;;;;;0.98;0.52;;;;;;;7.43;92.09;101927.69;5043727;28;20025;-80
2023/10/15 07:55:01;;;;;;;1.48;0.57;;;;;;;7.44;91.62;101922.53;5050751;28;20476;-81
2023/10/15 07:57:27;;;;;;;1.20;0.63;;;;;;;7.49;90.88;101929.47;5047496;28;20021;-81
2023/10/15 07:59:58;;;;;;;3.03;0.50;;;;;;;7.51;92.27;101928.59;5042805;28;20134;-80
2023/10/15 08:02:23;;;;;;;2.55;0.60;;;;;;;7.57;91.61;101927.75;5041482;28;20022;-79
2023/10/15 08:04:53;;;;;;;2.70;0.57;;;;;;;7.64;92.64;101920.88;5050121;28;20036;-80
2023/10/15 08:07:19;;;;;;;1.92;0.50;;;;;;;7.70;93.01;101902.78;5050087;28;20468;-81
2023/10/15 08:09:44;;;;;;;1.10;0.63;;;;;;;7.74;92.56;101907.97;5062092;28;20032;-81
2023/10/15 08:12:09;;;;;;;2.22;0.50;;;;;;;7.79;92.11;101912.31;5049536;28;20028;-80
2023/10/15 08:14:34;;;;;;;1.65;0.45;;;;;;;7.82;92.57;101912.31;5051345;28;20028;-79
2023/10/15 08:17:00;;;;;;;1.50;0.60;;;;;;;7.82;92.75;101933.03;5051785;28;20100;-79
2023/10/15 08:19:25;;;;;;;1.65;0.40;;;;;;;7.86;92.66;101924.41;5054349;28;20032;-79
2023/10/15 08:21:50;;;;;;;1.23;0.40;;;;;;;7.89;93.06;101924.41;5050295;28;20093;-79
2023/10/15 08:24:16;;;;;;;1.83;0.52;;;;;;;7.92;93.23;101936.53;5058282;28;20033;-80
2023/10/15 08:26:41;;;;;;;2.80;0.50;;;;;;;7.94;92.34;101938.25;5046731;28;20040;-80
2023/10/15 08:29:09;;;;;;;2.15;0.70;;;;;;;7.93;92.09;101957.25;5052019;28;20442;-80
2023/10/15 08:31:35;;;;;;;4.70;0.60;;;;;;;7.95;93.28;101955.53;5044796;28;20029;-80
2023/10/15 08:34:01;;;;;;;1.92;0.60;;;;;;;8.00;93.11;101948.66;5045254;28;20025;-81
2023/10/15 08:36:26;;;;;;;2.85;0.50;;;;;;;8.07;92.45;101969.38;5042163;28;20039;-80
2023/10/15 08:38:52;;;;;;;1.55;0.50;;;;;;;8.16;91.52;101974.59;5048415;28;20021;-80
2023/10/15 08:41:20;;;;;;;1.05;0.40;;;;;;;8.24;91.69;101983.25;5035805;28;20041;-80
2023/10/15 08:43:49;;;;;;;1.25;0.60;;;;;;;8.26;91.11;101991.91;5045415;28;20040;-80
2023/10/15 08:46:18;;;;;;;2.45;0.50;;;;;;;8.23;90.18;102011.78;5040481;28;20022;-80
2023/10/15 08:48:46;;;;;;;2.80;0.52;;;;;;;8.15;90.32;102011.75;5050312;28;20021;-80
2023/10/15 08:51:13;;;;;;;1.77;0.70;;;;;;;8.10;90.35;102032.50;5049332;28;20021;-79
2023/10/15 08:53:41;;;;;;;2.05;0.52;;;;;;;8.04;90.77;102028.13;5043747;28;20120;-80
2023/10/15 08:56:09;;;;;;;1.75;0.50;;;;;;;8.05;91.09;102027.25;5045772;28;20028;-80
2023/10/15 08:58:35;;;;;;;2.25;0.60;;;;;;;8.04;91.97;102041.06;5045884;28;20369;-80
2023/10/15 09:01:02;;;;;;;1.75;0.60;;;;;;;8.02;91.54;102045.41;5040224;28;20068;-81
2023/10/15 09:03:29;;;;;;;1.55;0.50;;;;;;;8.00;90.99;102041.94;5043583;28;20047;-81
2023/10/15 09:05:54;;;;;;;1.65;0.50;;;;;;;7.99;89.95;102058.34;5046453;28;20405;-81
2023/10/15 09:08:20;;;;;;;1.00;0.50;;;;;;;7.98;90.76;102043.66;5041536;28;20100;-81
2023/10/15 09:10:45;;;;;;;1.95;0.60;;;;;;;7.99;90.27;102035.03;5042225;28;20056;-81
2023/10/15 09:13:15;;;;;;;1.95;0.50;;;;;;;7.98;90.32;102033.28;5037925;28;21021;-81
2023/10/15 09:15:43;;;;;;;2.10;0.57;;;;;;;7.96;89.67;102029.81;5034329;28;20033;-81
2023/10/15 09:18:11;;;;;;;2.58;0.57;;;;;;;7.97;90.73;102031.56;5040389;28;20376;-81
2023/10/15 09:20:39;;;;;;;0.77;0.40;;;;;;;7.93;89.66;102034.13;5038433;28;20443;-81
2023/10/15 09:23:05;;;;;;;2.53;0.80;;;;;;;7.94;90.85;102039.31;5043758;28;20025;-80
2023/10/15 09:25:30;;;;;;;1.58;0.43;;;;;;;7.90;88.47;102045.34;5046128;28;20032;-80
2023/10/15 09:27:56;;;;;;;1.63;0.32;;;;;;;7.82;87.50;102042.72;5045865;28;20071;-80
2023/10/15 09:30:23;;;;;;;1.08;0.30;;;;;;;7.82;87.09;102041.84;5042104;28;20028;-81
2023/10/15 09:32:49;;;;;;;2.58;0.40;;;;;;;7.87;89.39;102040.13;5043498;28;20472;-81
2023/10/15 09:35:15;;;;;;;2.05;0.40;;;;;;;7.99;88.41;102045.41;5043377;28;20033;-80
2023/10/15 09:37:41;;;;;;;1.30;0.40;;;;;;;8.10;87.13;102041.97;5044446;28;20037;-81
2023/10/15 09:40:09;;;;;;;1.25;0.47;;;;;;;8.18;87.49;102038.53;5042878;28;20079;-81
2023/10/15 09:42:38;;;;;;;3.53;0.47;;;;;;;8.25;86.95;102048.94;5042688;28;20025;-81
2023/10/15 09:45:05;;;;;;;1.27;0.30;;;;;;;8.31;86.62;102051.53;5043373;28;20068;-80
2023/10/15 09:47:39;;;;;;;0.90;0.30;;;;;;;8.35;86.17;102061.97;5040414;28;20024;-81
2023/10/15 09:50:09;;;;;;;2.83;0.57;;;;;;;8.39;85.61;102064.53;5044786;28;20087;-81
2023/10/15 09:52:36;;;;;;;0.88;0.38;;;;;;;8.44;86.71;102068.00;5042352;28;20059;-80
2023/10/15 09:55:11;;;;;;;2.15;0.38;;;;;;;8.51;87.21;102077.59;5040434;28;20112;-81
2023/10/15 09:57:38;;;;;;;2.22;0.43;;;;;;;8.61;86.48;102081.94;5042103;28;20047;-81
2023/10/15 10:00:10;;;;;;;1.27;0.65;;;;;;;8.67;86.99;102080.22;5045921;28;20435;-81
2023/10/15 10:02:39;;;;;;;;;;;;;;;8.72;86.94;102083.66;5047609;28;20421;-80
2023/10/15 10:05:41;;;;;;;1.30;0.30;;;;;;;8.73;86.45;102075.91;5040149;28;19912;-81
2023/10/15 10:08:12;;;;;;;;;;;;;;;8.81;86.58;102083.69;5041374;28;20031;-79
2023/10/15 10:11:02;;;;;;;1.52;0.45;;;;;;;8.79;86.17;102088.03;5037414;28;20023;-80
2023/10/15 10:13:57;;;;;;;2.35;0.40;;;;;;;8.79;85.50;102095.81;5043146;28;20116;-81
2023/10/15 10:16:26;;;;;;;1.92;0.45;;;;;;;8.79;85.43;102101.00;5038294;28;20036;-81
2023/10/15 10:18:52;;;;;;;1.42;0.35;;;;;;;8.84;85.99;102098.41;5042598;28;20403;-81
2023/10/15 10:21:18;;;;;;;2.47;0.50;;;;;;;8.89;86.19;102100.13;5042426;28;20481;-80
2023/10/15 10:23:43;;;;;;;2.60;0.50;;;;;;;8.95;85.73;102110.53;5040729;28;20021;-81
2023/10/15 10:26:13;;;;;;;3.85;0.60;;;;;;;9.01;85.80;102108.81;5040597;28;20048;-81
2023/10/15 10:28:40;;;;;;;1.58;0.30;;;;;;;9.03;86.50;102126.13;5042903;28;20100;-80
2023/10/15 10:31:08;;;;;;;1.30;0.40;;;;;;;9.02;84.75;102128.72;5048900;28;20035;-80
2023/10/15 10:33:42;;;;;;;1.73;0.40;;;;;;;8.94;84.73;102120.94;5048922;28;20017;-80
2023/10/15 10:36:15;;;;;;;1.02;0.40;;;;;;;8.94;86.46;102129.56;5042554;28;20055;-81
2023/10/15 10:38:44;;;;;;;1.75;0.40;;;;;;;9.01;87.21;102124.41;5041163;28;20041;-80
2023/10/15 10:41:14;;;;;;;0.90;0.30;;;;;;;9.04;84.96;102129.59;5042110;28;20028;-81
2023/10/15 10:43:41;;;;;;;1.55;0.50;;;;;;;9.02;85.03;102128.72;5044057;28;20131;-80
2023/10/15 10:46:07;;;;;;;1.38;0.40;;;;;;;9.00;85.73;102138.25;5040726;28;20032;-81
2023/10/15 10:48:35;;;;;;;1.42;0.50;;;;;;;8.99;86.70;102136.50;5042487;28;20021;-81
2023/10/15 10:51:13;;;;;;;1.88;0.43;;;;;;;9.02;87.88;102124.38;5040947;28;20036;-80
2023/10/15 10:53:56;;;;;;;2.22;0.50;;;;;;;9.03;85.92;102123.53;5042254;28;20018;-80
2023/10/15 10:56:22;;;;;;;2.03;0.40;;;;;;;9.03;87.57;102120.06;5042605;28;20065;-80
2023/10/15 10:58:51;;;;;;;0.95;0.40;;;;;;;9.01;87.10;102120.06;5046008;28;20025;-80
2023/10/15 11:01:17;;;;;;;1.33;0.40;;;;;;;8.98;85.34;102119.19;5047588;28;20049;-81
2023/10/15 11:03:44;;;;;;;1.55;0.43;;;;;;;8.91;83.50;102124.38;5043477;28;20472;-80
2023/10/15 11:06:09;;;;;;;1.15;0.43;;;;;;;8.86;83.85;102133.00;5043710;28;20032;-81
2023/10/15 11:08:35;;;;;;;3.38;0.40;;;;;;;8.83;84.21;102117.44;5040902;28;20025;-81
2023/10/15 11:11:00;;;;;;;1.08;0.40;;;;;;;8.83;84.62;102123.50;5036594;28;20052;-81
2023/10/15 11:13:27;;;;;;;1.38;0.32;;;;;;;8.87;85.34;102122.66;5042951;28;20053;-82
2023/10/15 11:15:53;;;;;;;1.92;0.40;;;;;;;8.88;85.19;102124.34;5041762;28;20029;-81
2023/10/15 11:18:26;;;;;;;3.83;0.80;;;;;;;8.88;84.29;102116.56;5045849;28;20024;-81
2023/10/15 11:20:52;;;;;;;2.63;0.50;;;;;;;8.89;85.65;102118.31;5047065;28;20040;-81
2023/10/15 11:23:18;;;;;;;2.25;0.52;;;;;;;8.94;85.45;102116.59;5052290;28;20021;-81
2023/10/15 11:25:43;;;;;;;2.10;0.50;;;;;;;8.97;85.82;102120.91;5057256;28;20058;-80
2023/10/15 11:28:11;;;;;;;1.65;0.77;;;;;;;9.02;86.98;102129.59;5049786;28;20018;-80
2023/10/15 11:30:41;;;;;;;2.05;0.60;;;;;;;9.08;87.13;102129.59;5045809;28;20030;-80
2023/10/15 11:33:09;;;;;;;3.72;0.68;;;;;;;9.20;83.87;102133.94;5037718;28;20192;-81
2023/10/15 11:35:34;;;;;;;1.02;0.50;;;;;;;9.31;84.96;102139.13;5047019;28;20021;-81
2023/10/15 11:38:09;;;;;;;1.23;0.50;;;;;;;9.43;85.34;102143.47;5041337;28;20036;-81
2023/10/15 11:40:38;;;;;;;1.30;0.40;;;;;;;9.46;83.91;102134.81;5048854;28;20081;-80
2023/10/15 11:43:09;;;;;;;1.67;0.40;;;;;;;9.47;82.03;102137.41;5047252;28;20367;-81
2023/10/15 11:45:37;;;;;;;1.58;0.45;;;;;;;9.49;83.27;102138.28;5045600;28;20025;-80
2023/10/15 11:48:04;;;;;;;2.92;0.47;;;;;;;9.45;82.95;102128.75;5046605;28;20079;-81
2023/10/15 11:50:29;;;;;;;2.78;0.50;;;;;;;9.45;80.97;102127.88;5051656;28;20050;-81
2023/10/15 11:52:55;;;;;;;2.28;0.60;;;;;;;9.44;82.16;102129.59;5045487;28;20099;-80